Time;durP1;ratioP1;P1;durP2;ratioP2;P2;SDS_P1;SDS_P2;PMS_P1;PMS_P2;Temp;Humidity;BMP_temperature;BMP_pressure;BME280_temperature;BME280_humidity;BME280_pressure;Samples;Min_cycle;Max_cycle;Signal;HPM_P1;HPM_P2
2022/05/13 00:01:34;;;;;;;9.02;3.62;;;9.20;99.90;;;;;;7262038;32;20645;-62
2022/05/13 00:05:36;;;;;;;8.70;3.45;;;9.10;99.90;;;;;;7360663;32;20668;-62
2022/05/13 00:13:57;;;;;;;5.93;3.10;;;9.10;99.90;;;;;;7361741;32;20390;-60
2022/05/13 00:17:59;;;;;;;5.15;3.75;;;9.00;99.90;;;;;;7358980;32;20130;-60
2022/05/13 00:22:01;;;;;;;7.78;3.22;;;9.00;99.90;;;;;;7358760;32;20111;-59
2022/05/13 00:26:03;;;;;;;7.93;3.62;;;8.90;99.90;;;;;;7359466;32;20126;-58
2022/05/13 00:30:07;;;;;;;8.25;3.50;;;8.80;99.90;;;;;;7363271;32;20526;-59
2022/05/13 00:34:10;;;;;;;7.80;3.58;;;8.80;99.90;;;;;;7366513;32;20111;-59
2022/05/13 00:38:11;;;;;;;6.05;3.53;;;8.80;99.90;;;;;;7361053;32;20161;-59
2022/05/13 00:42:17;;;;;;;6.65;3.33;;;8.80;99.90;;;;;;7366552;32;20590;-60
2022/05/13 00:46:20;;;;;;;7.32;3.50;;;8.80;99.90;;;;;;7347017;32;20208;-60
2022/05/13 00:50:22;;;;;;;7.70;3.20;;;8.70;99.90;;;;;;7362441;32;22140;-60
2022/05/13 00:54:23;;;;;;;6.50;3.50;;;8.70;99.90;;;;;;7365994;32;20111;-59
2022/05/13 00:58:26;;;;;;;5.20;3.00;;;8.50;99.90;;;;;;7361121;32;20438;-58
2022/05/13 01:02:30;;;;;;;2.90;2.42;;;8.50;99.90;;;;;;7364067;32;20110;-60
2022/05/13 01:06:33;;;;;;;6.87;3.35;;;8.50;99.90;;;;;;7358427;32;20147;-60
2022/05/13 01:10:38;;;;;;;4.87;3.20;;;8.40;99.90;;;;;;7363687;32;20103;-60
2022/05/13 01:14:51;;;;;;;5.18;2.80;;;8.30;99.90;;;;;;7359961;32;20103;-60
2022/05/13 01:18:53;;;;;;;6.68;3.20;;;8.30;99.90;;;;;;7355256;32;20137;-59
2022/05/13 01:23:01;;;;;;;6.10;3.37;;;8.20;99.90;;;;;;7343654;32;20231;-59
2022/05/13 01:27:03;;;;;;;6.07;3.00;;;8.10;99.90;;;;;;7366639;32;20726;-60
2022/05/13 01:31:09;;;;;;;5.78;3.08;;;8.10;99.90;;;;;;7363929;32;20106;-59
2022/05/13 01:35:13;;;;;;;3.55;2.40;;;8.10;99.90;;;;;;7349666;32;20249;-62
2022/05/13 01:39:14;;;;;;;7.53;2.78;;;8.00;99.90;;;;;;7360244;32;20142;-61
2022/05/13 01:43:16;;;;;;;5.87;3.05;;;7.90;99.90;;;;;;7362919;32;20217;-62
2022/05/13 01:47:18;;;;;;;7.60;2.85;;;7.90;99.90;;;;;;7359984;32;20102;-61
2022/05/13 01:51:20;;;;;;;4.53;2.58;;;7.90;99.90;;;;;;7348045;32;20644;-62
2022/05/13 01:55:23;;;;;;;4.95;2.28;;;7.80;99.90;;;;;;7358826;32;20348;-61
2022/05/13 01:59:24;;;;;;;4.90;2.92;;;7.80;99.90;;;;;;7361807;32;20194;-62
2022/05/13 02:03:45;;;;;;;3.87;2.08;;;7.80;99.90;;;;;;7357071;32;20445;-60
2022/05/13 02:07:48;;;;;;;7.78;2.75;;;7.70;99.90;;;;;;7338483;32;20850;-59
2022/05/13 02:11:50;;;;;;;3.03;1.98;;;7.70;99.90;;;;;;7353977;32;20186;-60
2022/05/13 02:15:52;;;;;;;3.42;2.10;;;7.60;99.90;;;;;;7351561;32;20201;-60
2022/05/13 02:19:54;;;;;;;3.00;1.87;;;7.60;99.90;;;;;;7360797;32;20765;-59
2022/05/13 02:23:55;;;;;;;4.03;2.12;;;7.50;99.90;;;;;;7356156;32;20111;-61
2022/05/13 02:27:58;;;;;;;2.87;2.22;;;7.60;99.90;;;;;;7358849;32;20269;-61
2022/05/13 02:31:59;;;;;;;6.05;2.80;;;7.60;99.90;;;;;;7362533;32;20201;-61
2022/05/13 02:36:02;;;;;;;4.55;2.50;;;7.60;99.90;;;;;;7359703;32;20854;-61
2022/05/13 02:40:04;;;;;;;5.12;2.33;;;7.50;99.90;;;;;;7366583;32;20111;-61
2022/05/13 02:44:06;;;;;;;3.90;2.37;;;7.50;99.90;;;;;;7346521;32;20137;-60
2022/05/13 02:48:15;;;;;;;4.00;2.35;;;7.50;99.90;;;;;;7363362;32;20234;-58
2022/05/13 02:52:16;;;;;;;6.05;2.42;;;7.40;99.90;;;;;;7356767;32;20142;-60
2022/05/13 02:56:18;;;;;;;9.00;2.42;;;7.40;99.90;;;;;;7356228;32;20130;-59
2022/05/13 03:00:20;;;;;;;6.25;3.33;;;7.40;99.90;;;;;;7356678;32;20337;-59
2022/05/13 03:04:22;;;;;;;9.00;2.78;;;7.60;99.90;;;;;;7350534;32;20111;-59
2022/05/13 03:08:24;;;;;;;8.88;2.37;;;8.00;99.90;;;;;;7363435;32;20172;-59
2022/05/13 03:12:26;;;;;;;8.25;2.10;;;8.40;99.90;;;;;;7346242;32;20115;-59
2022/05/13 03:16:27;;;;;;;7.80;2.60;;;8.80;99.90;;;;;;7364749;32;20218;-59
2022/05/13 03:20:29;;;;;;;8.68;2.17;;;9.00;99.90;;;;;;7342356;32;20253;-59
2022/05/13 03:24:31;;;;;;;6.07;1.90;;;9.10;99.90;;;;;;7349583;32;20118;-59
2022/05/13 03:28:34;;;;;;;7.03;1.70;;;9.30;99.90;;;;;;7338061;32;20272;-60
2022/05/13 03:32:36;;;;;;;4.45;1.58;;;9.60;99.90;;;;;;7358498;32;20122;-59
2022/05/13 03:36:37;;;;;;;5.62;1.67;;;9.70;99.90;;;;;;7361245;32;20099;-59
2022/05/13 03:40:40;;;;;;;5.15;1.50;;;9.80;99.90;;;;;;7339370;32;20218;-62
2022/05/13 03:44:42;;;;;;;6.60;1.52;;;9.90;99.90;;;;;;7360773;32;20138;-61
2022/05/13 03:48:44;;;;;;;6.95;1.80;;;10.00;99.90;;;;;;7360163;32;20179;-60
2022/05/13 03:52:46;;;;;;;7.07;2.00;;;10.00;99.90;;;;;;7366369;32;20111;-60
2022/05/13 03:56:47;;;;;;;7.15;1.40;;;10.00;99.90;;;;;;7362217;32;20729;-60
2022/05/13 04:00:51;;;;;;;6.78;1.33;;;10.00;99.90;;;;;;7350502;32;20114;-61
2022/05/13 04:09:13;;;;;;;6.87;1.77;;;10.10;99.90;;;;;;7365430;32;20099;-61
2022/05/13 04:17:35;;;;;;;6.35;1.08;;;10.10;99.90;;;;;;7366378;32;20153;-60
2022/05/13 04:21:39;;;;;;;8.30;1.70;;;10.10;99.90;;;;;;7361153;32;20107;-60
2022/05/13 04:25:41;;;;;;;6.65;1.52;;;10.10;99.90;;;;;;7362947;32;20157;-60
2022/05/13 04:29:42;;;;;;;7.03;1.65;;;10.20;99.90;;;;;;7361645;32;20171;-60
2022/05/13 04:33:45;;;;;;;5.43;1.60;;;10.30;99.90;;;;;;7362810;32;20102;-60
2022/05/13 04:37:46;;;;;;;6.03;1.42;;;10.50;99.90;;;;;;7347373;32;20099;-60
2022/05/13 04:46:12;;;;;;;5.85;1.58;;;10.60;99.90;;;;;;7357310;32;20525;-59
2022/05/13 04:50:14;;;;;;;7.18;1.60;;;10.70;99.90;;;;;;7353824;32;20131;-62
2022/05/13 04:54:16;;;;;;;9.88;1.70;;;10.70;99.90;;;;;;7344342;32;20130;-63
2022/05/13 04:58:18;;;;;;;6.68;1.80;;;10.80;99.90;;;;;;7353550;32;20561;-65
2022/05/13 05:02:20;;;;;;;8.75;1.65;;;10.90;99.90;;;;;;7364429;32;20276;-64
2022/05/13 05:06:22;;;;;;;7.22;1.80;;;10.90;99.90;;;;;;7362134;32;20153;-64
2022/05/13 05:10:25;;;;;;;5.65;1.30;;;11.00;99.90;;;;;;7359580;32;20218;-63
2022/05/13 05:14:27;;;;;;;6.57;1.65;;;11.10;99.90;;;;;;7349864;32;20184;-63
2022/05/13 05:18:28;;;;;;;5.47;1.70;;;11.00;99.90;;;;;;7356398;32;20151;-63
2022/05/13 05:22:30;;;;;;;13.48;1.98;;;11.10;99.90;;;;;;7359117;32;20341;-63
2022/05/13 05:26:32;;;;;;;13.95;2.30;;;11.30;99.90;;;;;;7346073;32;20104;-62
2022/05/13 05:30:33;;;;;;;8.98;2.30;;;11.40;99.90;;;;;;7345091;32;20139;-62
2022/05/13 05:34:35;;;;;;;10.73;2.00;;;11.50;99.90;;;;;;7366695;32;20102;-65
2022/05/13 05:38:37;;;;;;;8.57;3.00;;;11.50;99.90;;;;;;7360190;32;20819;-63
2022/05/13 05:42:40;;;;;;;9.13;1.80;;;11.60;99.90;;;;;;7356993;32;20261;-68
2022/05/13 05:46:42;;;;;;;10.48;2.10;;;11.60;99.90;;;;;;7353346;32;20126;-66
2022/05/13 05:50:44;;;;;;;10.93;3.37;;;11.50;99.90;;;;;;7361723;32;20115;-65
2022/05/13 05:59:07;;;;;;;8.82;2.45;;;11.60;99.90;;;;;;7336066;32;20226;-64
2022/05/13 06:03:09;;;;;;;16.80;2.60;;;11.60;99.90;;;;;;7349571;32;20165;-62
2022/05/13 06:07:14;;;;;;;7.20;1.92;;;11.60;99.90;;;;;;7344570;32;20453;-63
2022/05/13 06:11:23;;;;;;;7.93;2.25;;;11.70;99.90;;;;;;7341822;32;20173;-64
2022/05/13 06:15:25;;;;;;;9.73;2.50;;;11.80;99.90;;;;;;7347181;32;20631;-63
2022/05/13 06:19:27;;;;;;;6.20;2.05;;;11.90;99.90;;;;;;7347644;32;20621;-64
2022/05/13 06:23:28;;;;;;;9.48;2.03;;;12.10;99.90;;;;;;7359660;32;20230;-63
2022/05/13 06:27:30;;;;;;;12.10;2.62;;;12.70;99.90;;;;;;7341328;32;20235;-62
2022/05/13 06:31:32;;;;;;;10.43;2.00;;;13.80;99.90;;;;;;7364956;32;20129;-64
2022/05/13 06:35:35;;;;;;;4.55;1.67;;;15.00;99.90;;;;;;7357990;32;20099;-64
2022/05/13 06:39:37;;;;;;;6.22;1.55;;;16.20;99.90;;;;;;7349710;32;20130;-64
2022/05/13 06:43:39;;;;;;;8.07;1.80;;;16.90;99.90;;;;;;7353520;32;20103;-64
2022/05/13 06:47:41;;;;;;;8.68;2.30;;;17.20;99.90;;;;;;7355121;32;20208;-63
2022/05/13 06:51:43;;;;;;;9.73;2.40;;;17.60;99.90;;;;;;7351009;32;20134;-64
2022/05/13 06:55:45;;;;;;;10.10;2.60;;;17.10;99.90;;;;;;7361238;32;20141;-65
2022/05/13 06:59:47;;;;;;;8.57;2.30;;;16.70;99.90;;;;;;7351259;32;20111;-63
2022/05/13 07:03:49;;;;;;;8.20;2.03;;;16.10;99.90;;;;;;7356791;32;20103;-64
2022/05/13 07:07:51;;;;;;;11.02;3.30;;;15.80;99.90;;;;;;7362001;32;20195;-62
2022/05/13 07:11:54;;;;;;;7.20;2.17;;;15.30;99.90;;;;;;7348286;32;20459;-64
2022/05/13 07:15:57;;;;;;;9.02;1.80;;;15.00;99.90;;;;;;7365120;32;20102;-64
2022/05/13 07:19:59;;;;;;;5.87;1.90;;;14.90;99.90;;;;;;7341984;32;20133;-61
2022/05/13 07:24:00;;;;;;;9.98;2.20;;;14.70;99.90;;;;;;7359945;32;20194;-60
2022/05/13 07:28:03;;;;;;;9.23;2.33;;;14.70;99.90;;;;;;7356807;32;20526;-63
2022/05/13 07:32:05;;;;;;;8.52;1.62;;;14.80;99.90;;;;;;7354714;32;20189;-63
2022/05/13 07:36:07;;;;;;;8.55;1.70;;;14.90;99.90;;;;;;7344980;32;20195;-63
2022/05/13 07:44:30;;;;;;;7.40;1.70;;;15.00;99.90;;;;;;7341003;32;20306;-64
2022/05/13 07:48:32;;;;;;;6.97;1.67;;;15.10;99.90;;;;;;7339602;32;20770;-63
2022/05/13 07:52:34;;;;;;;7.93;1.45;;;15.10;99.90;;;;;;7353159;32;20276;-64
2022/05/13 07:56:35;;;;;;;8.02;1.70;;;15.20;99.90;;;;;;7357560;32;20543;-65
2022/05/13 08:00:38;;;;;;;8.93;2.05;;;15.50;99.90;;;;;;7361482;32;20517;-65
2022/05/13 08:04:39;;;;;;;9.48;1.62;;;15.40;99.90;;;;;;7363571;32;20132;-64
2022/05/13 08:08:45;;;;;;;7.50;1.60;;;15.30;99.90;;;;;;7367630;32;20206;-64
2022/05/13 08:12:46;;;;;;;10.23;1.87;;;15.50;99.90;;;;;;7366777;32;20646;-62
2022/05/13 08:16:50;;;;;;;8.75;1.60;;;15.70;99.90;;;;;;7359157;32;20095;-65
2022/05/13 08:20:52;;;;;;;6.85;1.42;;;15.70;99.90;;;;;;7345759;32;20197;-65
2022/05/13 08:24:54;;;;;;;8.23;1.50;;;16.00;99.90;;;;;;7345006;32;20201;-64
2022/05/13 08:28:56;;;;;;;6.07;1.83;;;16.50;99.90;;;;;;7358662;32;20111;-65
2022/05/13 08:33:01;;;;;;;8.25;1.58;;;16.80;99.90;;;;;;7367398;32;20262;-63
2022/05/13 08:37:03;;;;;;;6.32;1.62;;;16.80;99.90;;;;;;7341789;32;20650;-65
2022/05/13 08:41:07;;;;;;;9.20;1.60;;;17.40;99.90;;;;;;7358698;32;20107;-65
2022/05/13 08:45:11;;;;;;;10.93;2.03;;;17.40;99.90;;;;;;7366554;32;20153;-65
2022/05/13 08:49:45;;;;;;;4.95;1.40;;;17.00;99.90;;;;;;7358443;32;20146;-64
2022/05/13 08:54:14;;;;;;;6.35;1.48;;;16.80;99.90;;;;;;7364308;32;20875;-66
2022/05/13 08:58:22;;;;;;;9.25;1.70;;;16.70;99.90;;;;;;7356038;32;20107;-66
2022/05/13 09:02:47;;;;;;;5.50;1.30;;;16.90;99.90;;;;;;7360460;32;20174;-66
2022/05/13 09:06:54;;;;;;;4.82;1.40;;;18.00;99.90;;;;;;7361211;32;20585;-66
2022/05/13 09:11:21;;;;;;;5.90;1.55;;;18.80;99.90;;;;;;7335750;32;20200;-64
2022/05/13 09:15:50;;;;;;;4.28;1.25;;;19.40;99.90;;;;;;7345804;32;20279;-66
2022/05/13 09:19:59;;;;;;;8.02;1.42;;;20.00;99.90;;;;;;7358751;32;20198;-67
2022/05/13 09:24:01;;;;;;;3.53;1.23;;;19.60;99.90;;;;;;7365839;32;20174;-65
2022/05/13 09:28:14;;;;;;;7.57;1.40;;;20.00;99.90;;;;;;7355445;32;20111;-66
2022/05/13 09:32:25;;;;;;;5.47;1.30;;;19.80;99.90;;;;;;7363903;32;20124;-65
2022/05/13 09:36:27;;;;;;;5.75;1.70;;;20.50;97.20;;;;;;7344933;32;20107;-64
2022/05/13 09:40:32;;;;;;;5.35;1.00;;;20.30;97.30;;;;;;7362063;32;20106;-65
2022/05/13 09:44:34;;;;;;;5.75;1.20;;;20.90;95.90;;;;;;7361934;32;20679;-64
2022/05/13 09:48:39;;;;;;;5.75;1.30;;;21.00;94.00;;;;;;7365561;32;20099;-65
2022/05/13 09:52:42;;;;;;;3.12;1.10;;;20.70;92.70;;;;;;7362481;32;20144;-65
2022/05/13 09:56:46;;;;;;;5.32;1.17;;;20.50;90.50;;;;;;7357526;32;20107;-65
2022/05/13 10:00:55;;;;;;;4.15;1.00;;;20.60;91.80;;;;;;7369424;32;20160;-65
2022/05/13 10:05:22;;;;;;;6.22;1.35;;;21.00;91.50;;;;;;7363298;32;20110;-64
2022/05/13 10:14:02;;;;;;;5.15;1.25;;;20.70;91.50;;;;;;7351268;32;20107;-65
2022/05/13 10:18:10;;;;;;;6.37;1.48;;;20.50;94.30;;;;;;7360117;32;20130;-64
2022/05/13 10:22:32;;;;;;;6.12;1.75;;;20.00;93.00;;;;;;7360667;32;20261;-65
2022/05/13 10:26:40;;;;;;;7.28;1.23;;;19.20;95.70;;;;;;7364093;32;20392;-65
2022/05/13 10:30:47;;;;;;;5.82;1.23;;;18.90;96.10;;;;;;7360157;32;20211;-65
2022/05/13 10:34:53;;;;;;;4.62;1.10;;;18.20;96.40;;;;;;7358534;32;20667;-65
2022/05/13 10:39:15;;;;;;;5.97;1.08;;;18.00;96.10;;;;;;7364588;32;20107;-65
2022/05/13 10:43:22;;;;;;;4.55;0.70;;;18.10;95.80;;;;;;7346044;32;20120;-66
2022/05/13 10:47:46;;;;;;;5.37;1.08;;;18.10;95.90;;;;;;7358506;32;20464;-65
2022/05/13 10:52:02;;;;;;;6.32;1.00;;;18.00;97.60;;;;;;7354177;32;20107;-65
2022/05/13 10:56:21;;;;;;;6.93;1.20;;;17.90;98.30;;;;;;7358945;32;20111;-64
2022/05/13 11:00:34;;;;;;;5.05;1.20;;;18.50;97.70;;;;;;7354259;32;20240;-65
2022/05/13 11:05:00;;;;;;;4.87;1.00;;;18.50;95.90;;;;;;7353307;32;20361;-65
2022/05/13 11:09:33;;;;;;;3.90;1.10;;;18.70;98.10;;;;;;7358064;32;20137;-66
2022/05/13 11:13:44;;;;;;;6.43;1.10;;;18.90;97.80;;;;;;7343798;32;20512;-66
2022/05/13 11:18:00;;;;;;;3.35;1.15;;;18.60;96.50;;;;;;7359893;32;20115;-64
2022/05/13 11:22:17;;;;;;;5.03;1.30;;;18.70;98.60;;;;;;7355162;32;20273;-64
2022/05/13 11:26:28;;;;;;;3.20;1.00;;;19.20;95.00;;;;;;7359908;32;20459;-64
2022/05/13 11:30:35;;;;;;;5.15;1.20;;;19.40;96.90;;;;;;7334880;32;20212;-65
2022/05/13 11:34:54;;;;;;;8.15;1.25;;;19.40;94.60;;;;;;7353398;32;20098;-56
2022/05/13 11:39:14;;;;;;;4.62;1.10;;;19.70;94.40;;;;;;7325351;32;20143;-57
2022/05/13 11:43:57;;;;;;;7.07;1.40;;;19.40;94.00;;;;;;7341501;32;20595;-58
2022/05/13 11:47:59;;;;;;;3.90;1.23;;;19.20;95.90;;;;;;7336472;32;20535;-58
2022/05/13 11:52:41;;;;;;;5.50;1.30;;;19.20;94.90;;;;;;7338498;32;20206;-58
2022/05/13 11:56:46;;;;;;;4.55;1.50;;;19.30;94.00;;;;;;7350696;32;20112;-57
2022/05/13 12:00:48;;;;;;;6.50;1.48;;;19.20;95.30;;;;;;7355724;32;20242;-57
2022/05/13 12:05:18;;;;;;;5.50;1.27;;;18.90;95.60;;;;;;7362905;32;20133;-58
2022/05/13 12:09:36;;;;;;;7.28;1.67;;;18.80;94.40;;;;;;7360505;32;20091;-57
2022/05/13 12:14:04;;;;;;;6.30;1.20;;;19.10;94.80;;;;;;7354353;32;20163;-59
2022/05/13 12:18:30;;;;;;;6.27;1.50;;;19.20;93.80;;;;;;7348542;32;20125;-58
2022/05/13 12:22:50;;;;;;;5.62;1.40;;;19.10;93.80;;;;;;7335157;32;20134;-58
2022/05/13 12:26:51;;;;;;;4.93;1.37;;;19.30;94.30;;;;;;7343176;32;20198;-65
2022/05/13 12:30:53;;;;;;;9.02;1.58;;;19.10;94.20;;;;;;7358171;32;20161;-64
2022/05/13 12:39:21;;;;;;;6.85;1.45;;;18.90;96.10;;;;;;7343667;32;20103;-66
2022/05/13 12:43:44;;;;;;;6.20;1.23;;;19.30;94.00;;;;;;7350075;32;20129;-58
2022/05/13 12:47:59;;;;;;;8.43;1.50;;;19.10;95.50;;;;;;7358580;32;20171;-60
2022/05/13 12:52:12;;;;;;;11.50;1.50;;;19.00;95.20;;;;;;7355375;32;20750;-59
2022/05/13 12:56:20;;;;;;;4.37;1.25;;;19.00;94.40;;;;;;7360960;32;20139;-59
2022/05/13 13:00:30;;;;;;;5.68;1.42;;;19.20;94.90;;;;;;7360570;32;20137;-60
2022/05/13 13:04:40;;;;;;;14.77;2.05;;;19.60;95.10;;;;;;7344296;32;20249;-65
2022/05/13 13:08:45;;;;;;;5.28;1.50;;;20.10;95.80;;;;;;7354230;32;20357;-64
2022/05/13 13:13:21;;;;;;;9.55;1.60;;;20.00;91.80;;;;;;7353279;32;20264;-65
2022/05/13 13:17:36;;;;;;;17.20;4.47;;;19.70;91.50;;;;;;7357783;32;20589;-65
2022/05/13 13:21:40;;;;;;;9.25;1.70;;;19.50;94.70;;;;;;7355551;32;20107;-65
2022/05/13 13:25:44;;;;;;;7.12;1.37;;;19.20;94.20;;;;;;7361914;32;20206;-64
2022/05/13 13:29:48;;;;;;;5.15;1.37;;;19.30;95.70;;;;;;7341267;32;20122;-64
2022/05/13 13:33:53;;;;;;;4.28;1.08;;;19.50;93.60;;;;;;7343455;32;20237;-66
2022/05/13 13:37:55;;;;;;;6.45;1.48;;;19.40;92.90;;;;;;7345714;32;20138;-66
2022/05/13 13:42:05;;;;;;;6.87;1.33;;;19.50;94.00;;;;;;7360918;32;20103;-65
2022/05/13 13:46:19;;;;;;;4.82;1.08;;;19.20;95.80;;;;;;7353860;32;20260;-65
2022/05/13 13:50:29;;;;;;;3.80;1.20;;;19.30;95.10;;;;;;7354528;32;20590;-64
2022/05/13 13:54:38;;;;;;;5.97;0.98;;;19.50;94.20;;;;;;7340280;32;20582;-66
2022/05/13 13:59:05;;;;;;;7.85;1.12;;;19.60;92.80;;;;;;7356040;32;20129;-65
2022/05/13 14:03:25;;;;;;;7.30;1.05;;;19.60;93.90;;;;;;7259488;32;20132;-65
2022/05/13 14:07:27;;;;;;;3.58;0.80;;;19.70;94.60;;;;;;7235404;32;20734;-64
2022/05/13 14:11:35;;;;;;;4.28;0.90;;;19.50;93.40;;;;;;7252981;32;20101;-66
2022/05/13 14:16:23;;;;;;;8.43;1.60;;;19.70;91.80;;;;;;7255930;32;20113;-63
2022/05/13 14:20:34;;;;;;;5.55;1.00;;;19.70;92.40;;;;;;7277465;32;20119;-65
2022/05/13 14:24:37;;;;;;;6.35;1.20;;;19.80;95.30;;;;;;7241197;32;20131;-66
2022/05/13 14:28:49;;;;;;;3.30;1.10;;;19.90;92.00;;;;;;7234893;32;20557;-65
2022/05/13 14:32:56;;;;;;;4.65;0.93;;;19.80;90.80;;;;;;7213506;32;20153;-65
2022/05/13 14:37:00;;;;;;;2.50;0.80;;;19.90;92.00;;;;;;7242804;32;20196;-66
2022/05/13 14:41:03;;;;;;;4.28;1.15;;;19.90;91.30;;;;;;7236413;32;20277;-68
2022/05/13 14:45:42;;;;;;;5.00;1.02;;;20.10;91.30;;;;;;7210868;32;20163;-67
2022/05/13 14:49:43;;;;;;;6.05;1.00;;;20.20;92.20;;;;;;7252157;32;20191;-66
2022/05/13 14:53:50;;;;;;;3.78;1.05;;;20.60;91.50;;;;;;7245648;32;20206;-67
2022/05/13 14:57:52;;;;;;;6.85;1.15;;;20.80;90.30;;;;;;7267619;32;20105;-66
2022/05/13 15:01:54;;;;;;;3.33;0.88;;;20.70;86.60;;;;;;7294968;32;20107;-66
2022/05/13 15:05:57;;;;;;;4.80;0.80;;;20.40;87.40;;;;;;7358702;32;20551;-67
2022/05/13 15:09:59;;;;;;;7.70;1.02;;;20.10;89.50;;;;;;7336765;32;20439;-65
2022/05/13 15:14:04;;;;;;;7.00;1.12;;;19.90;90.90;;;;;;7344216;32;20153;-65
2022/05/13 15:18:10;;;;;;;8.00;1.23;;;19.90;90.70;;;;;;7353777;32;20201;-66
2022/05/13 15:22:15;;;;;;;5.03;1.00;;;19.80;90.10;;;;;;7340848;32;20103;-64
2022/05/13 15:26:25;;;;;;;5.57;1.20;;;19.80;91.00;;;;;;7357767;32;20126;-64
2022/05/13 15:30:28;;;;;;;7.37;1.12;;;19.70;91.30;;;;;;7362660;32;20185;-65
2022/05/13 15:34:29;;;;;;;3.97;0.90;;;19.90;90.10;;;;;;7352657;32;20130;-66
2022/05/13 15:38:31;;;;;;;3.75;1.20;;;20.00;90.20;;;;;;7346853;32;20355;-65
2022/05/13 15:42:34;;;;;;;7.15;1.48;;;20.10;91.10;;;;;;7365206;32;20714;-67
2022/05/13 15:46:37;;;;;;;6.62;1.12;;;19.90;90.50;;;;;;7347482;32;20122;-64
2022/05/13 15:54:59;;;;;;;3.53;1.20;;;19.90;90.50;;;;;;7356179;32;20644;-66
2022/05/13 15:59:02;;;;;;;5.10;1.00;;;19.90;91.30;;;;;;7344820;32;20182;-68
2022/05/13 16:03:11;;;;;;;4.30;0.90;;;20.10;90.90;;;;;;7338677;32;20926;-66
2022/05/13 16:07:13;;;;;;;6.87;1.35;;;20.00;91.30;;;;;;7358311;32;20277;-65
2022/05/13 16:11:22;;;;;;;7.22;1.50;;;20.00;90.20;;;;;;7366687;32;20103;-67
2022/05/13 16:15:33;;;;;;;4.45;1.23;;;19.90;90.30;;;;;;7350851;32;20229;-67
2022/05/13 16:19:35;;;;;;;5.62;1.30;;;19.80;90.60;;;;;;7362317;32;20130;-67
2022/05/13 16:23:40;;;;;;;9.10;1.58;;;19.80;91.30;;;;;;7351502;32;20157;-66
2022/05/13 16:27:44;;;;;;;6.87;1.25;;;19.50;91.00;;;;;;7355881;32;20929;-66
2022/05/13 16:31:46;;;;;;;4.82;1.15;;;19.60;93.10;;;;;;7357420;32;20194;-68
2022/05/13 16:35:48;;;;;;;5.37;1.45;;;19.70;92.70;;;;;;7357135;32;20528;-67
2022/05/13 16:39:50;;;;;;;7.55;1.15;;;19.70;92.20;;;;;;7359637;32;20115;-67
2022/05/13 16:43:51;;;;;;;6.05;1.17;;;19.70;92.30;;;;;;7356610;32;20106;-65
2022/05/13 16:47:54;;;;;;;7.03;1.10;;;19.70;91.80;;;;;;7358438;32;20186;-68
2022/05/13 16:51:55;;;;;;;5.80;1.25;;;19.50;92.30;;;;;;7355302;32;20129;-65
2022/05/13 16:55:57;;;;;;;6.35;1.65;;;19.40;92.10;;;;;;7346710;32;20830;-67
2022/05/13 16:59:59;;;;;;;5.85;1.00;;;19.40;92.50;;;;;;7364206;32;20709;-67
2022/05/13 17:04:01;;;;;;;9.48;1.40;;;19.30;94.40;;;;;;7366482;32;20161;-66
2022/05/13 17:08:08;;;;;;;6.65;1.23;;;19.40;93.10;;;;;;7358557;32;20272;-66
2022/05/13 17:16:36;;;;;;;4.43;1.20;;;19.30;93.60;;;;;;7359420;32;20098;-63
2022/05/13 17:20:38;;;;;;;9.98;1.30;;;19.10;94.40;;;;;;7366781;32;20657;-66
2022/05/13 17:24:42;;;;;;;4.03;1.30;;;19.00;94.50;;;;;;7362204;32;20218;-59
2022/05/13 17:28:44;;;;;;;5.60;1.30;;;19.10;95.10;;;;;;7346345;32;20257;-65
2022/05/13 17:32:46;;;;;;;9.43;1.40;;;19.10;93.60;;;;;;7344807;32;20123;-66
2022/05/13 17:36:48;;;;;;;7.43;1.20;;;19.00;95.10;;;;;;7351219;32;20153;-65
2022/05/13 17:40:50;;;;;;;7.00;1.20;;;19.00;94.70;;;;;;7356389;32;20103;-68
2022/05/13 17:44:53;;;;;;;6.70;0.82;;;18.90;95.40;;;;;;7346619;32;20129;-64
2022/05/13 17:48:55;;;;;;;7.28;1.00;;;18.80;95.30;;;;;;7358631;32;20103;-66
2022/05/13 17:52:56;;;;;;;7.05;1.12;;;18.70;96.30;;;;;;7349310;32;20103;-66
2022/05/13 17:56:58;;;;;;;7.55;1.40;;;18.70;96.00;;;;;;7361489;32;20118;-67
2022/05/13 18:01:00;;;;;;;5.12;1.20;;;18.70;96.80;;;;;;7366209;32;20123;-66
2022/05/13 18:05:03;;;;;;;4.35;1.45;;;18.60;96.90;;;;;;7351447;32;20748;-67
2022/05/13 18:09:05;;;;;;;4.78;1.20;;;18.50;96.70;;;;;;7354462;32;20133;-67
2022/05/13 18:13:07;;;;;;;9.15;1.58;;;18.40;97.80;;;;;;7366953;32;20462;-65
2022/05/13 18:17:12;;;;;;;6.78;1.27;;;18.30;96.70;;;;;;7341302;32;20468;-63
2022/05/13 18:21:15;;;;;;;6.03;1.55;;;18.30;97.40;;;;;;7347497;32;20225;-66
2022/05/13 18:25:17;;;;;;;7.95;1.70;;;18.20;97.70;;;;;;7363622;32;20135;-67
2022/05/13 18:29:19;;;;;;;6.43;1.42;;;18.10;98.00;;;;;;7361246;32;20156;-66
2022/05/13 18:33:21;;;;;;;6.82;1.60;;;18.00;98.60;;;;;;7355769;32;20503;-67
2022/05/13 18:37:23;;;;;;;8.20;1.40;;;17.80;99.30;;;;;;7347523;32;20114;-66
2022/05/13 18:46:05;;;;;;;7.12;1.50;;;17.70;99.90;;;;;;7370515;32;20122;-68
2022/05/13 18:50:07;;;;;;;6.82;1.62;;;17.60;99.90;;;;;;7361646;32;20526;-67
2022/05/13 18:54:10;;;;;;;11.70;1.40;;;17.50;99.90;;;;;;7365904;32;20114;-67
2022/05/13 18:58:12;;;;;;;6.87;1.55;;;17.40;99.90;;;;;;7364980;32;20410;-65
2022/05/13 19:02:14;;;;;;;7.15;1.58;;;17.30;99.90;;;;;;7364965;32;20219;-67
2022/05/13 19:06:17;;;;;;;8.30;1.52;;;17.20;99.90;;;;;;7371107;32;20114;-68
2022/05/13 19:10:19;;;;;;;8.55;1.90;;;17.10;99.90;;;;;;7367271;32;20459;-67
2022/05/13 19:14:20;;;;;;;7.85;1.70;;;17.10;99.90;;;;;;7356594;32;20241;-66
2022/05/13 19:18:25;;;;;;;5.12;1.40;;;17.00;99.90;;;;;;7366037;32;20105;-65
2022/05/13 19:22:27;;;;;;;11.38;2.15;;;16.90;99.90;;;;;;7366417;32;20121;-67
2022/05/13 19:26:32;;;;;;;8.80;1.27;;;16.90;99.90;;;;;;7362380;32;20103;-64
2022/05/13 19:30:34;;;;;;;7.60;1.45;;;16.70;99.90;;;;;;7338453;32;20126;-64
2022/05/13 19:34:35;;;;;;;6.45;1.73;;;16.50;99.90;;;;;;7361828;32;20193;-64
2022/05/13 19:38:38;;;;;;;10.65;1.62;;;16.50;99.90;;;;;;7341140;32;20145;-64
2022/05/13 19:42:41;;;;;;;8.95;2.10;;;16.40;99.90;;;;;;7363199;32;20102;-63
2022/05/13 19:46:43;;;;;;;5.90;1.40;;;16.30;99.90;;;;;;7348620;32;20243;-64
2022/05/13 19:50:46;;;;;;;5.43;1.58;;;16.30;99.90;;;;;;7366149;32;20141;-64
2022/05/13 19:54:50;;;;;;;10.98;2.00;;;16.20;99.90;;;;;;7365750;32;20797;-64
2022/05/13 19:58:52;;;;;;;6.60;1.60;;;16.10;99.90;;;;;;7351333;32;20214;-64
2022/05/13 20:02:54;;;;;;;6.72;1.83;;;16.00;99.90;;;;;;7359165;32;20541;-63
2022/05/13 20:11:16;;;;;;;11.70;1.90;;;15.90;99.90;;;;;;7360241;32;20569;-63
2022/05/13 20:15:18;;;;;;;5.47;1.67;;;15.70;99.90;;;;;;7363607;32;20778;-63
2022/05/13 20:19:20;;;;;;;5.68;1.70;;;15.60;99.90;;;;;;7350097;32;20135;-64
2022/05/13 20:23:21;;;;;;;9.05;2.15;;;15.50;99.90;;;;;;7352601;32;20131;-62
2022/05/13 20:27:23;;;;;;;5.00;1.30;;;15.40;99.90;;;;;;7366752;32;20130;-63
2022/05/13 20:31:27;;;;;;;9.15;1.70;;;15.20;99.90;;;;;;7361611;32;20208;-63
2022/05/13 20:35:29;;;;;;;6.05;1.70;;;15.10;99.90;;;;;;7353919;32;20188;-63
2022/05/13 20:39:31;;;;;;;7.65;1.77;;;15.00;99.90;;;;;;7361137;32;20224;-64
2022/05/13 20:43:33;;;;;;;8.45;2.00;;;14.90;99.90;;;;;;7346954;32;20209;-62
2022/05/13 20:47:37;;;;;;;10.20;2.45;;;14.80;99.90;;;;;;7369716;32;20198;-63
2022/05/13 20:51:38;;;;;;;6.57;2.25;;;14.80;99.90;;;;;;7370575;32;20208;-64
2022/05/13 20:55:40;;;;;;;7.70;1.83;;;14.70;99.90;;;;;;7364962;32;20115;-63
2022/05/13 20:59:42;;;;;;;6.20;1.83;;;14.50;99.90;;;;;;7353652;32;20178;-63
2022/05/13 21:03:51;;;;;;;5.30;1.77;;;14.20;99.90;;;;;;7362742;32;20110;-64
2022/05/13 21:07:54;;;;;;;5.20;1.80;;;14.00;99.90;;;;;;7368096;32;20133;-64
2022/05/13 21:11:55;;;;;;;7.87;2.45;;;13.80;99.90;;;;;;7346986;32;20551;-63
2022/05/13 21:15:57;;;;;;;5.90;2.30;;;13.50;99.90;;;;;;7365216;32;20923;-62
2022/05/13 21:19:59;;;;;;;6.82;2.08;;;13.30;99.90;;;;;;7361612;32;20183;-64
2022/05/13 21:24:01;;;;;;;6.65;2.20;;;13.20;99.90;;;;;;7365201;32;20161;-65
2022/05/13 21:28:03;;;;;;;6.05;1.77;;;13.00;99.90;;;;;;7360964;32;20206;-63
2022/05/13 21:36:45;;;;;;;14.15;2.35;;;12.80;99.90;;;;;;7358615;32;20116;-62
2022/05/13 21:40:46;;;;;;;5.82;2.00;;;12.70;99.90;;;;;;7348970;32;20141;-63
2022/05/13 21:44:49;;;;;;;5.70;2.30;;;12.70;99.90;;;;;;7359044;32;20099;-63
2022/05/13 21:48:51;;;;;;;10.48;2.25;;;12.70;99.90;;;;;;7361377;32;20129;-64
2022/05/13 21:52:52;;;;;;;12.15;3.00;;;12.60;99.90;;;;;;7360348;32;20110;-62
2022/05/13 21:56:54;;;;;;;5.72;2.22;;;12.60;99.90;;;;;;7356739;32;20126;-64
2022/05/13 22:01:01;;;;;;;5.80;1.92;;;12.40;99.90;;;;;;7358733;32;20130;-63
2022/05/13 22:05:03;;;;;;;6.25;2.35;;;12.20;99.90;;;;;;7360176;32;20161;-62
2022/05/13 22:09:05;;;;;;;4.78;2.20;;;12.10;99.90;;;;;;7344254;32;20114;-62
2022/05/13 22:13:09;;;;;;;6.70;2.20;;;11.90;99.90;;;;;;7359197;32;20129;-62
2022/05/13 22:17:11;;;;;;;5.60;2.22;;;11.80;99.90;;;;;;7359735;32;20282;-61